sensor_id;sensor_type;location;lat;lon;timestamp;P1;durP1;ratioP1;P2;durP2;ratioP2
19579;SDS011;9936;51.040;13.918;2023-06-14T00:01:27;3.00;;;2.70;;
19579;SDS011;9936;51.040;13.918;2023-06-14T00:05:13;6.65;;;2.22;;
19579;SDS011;9936;51.040;13.918;2023-06-14T00:08:59;4.28;;;2.50;;
19579;SDS011;9936;51.040;13.918;2023-06-14T00:12:45;3.72;;;2.05;;
19579;SDS011;9936;51.040;13.918;2023-06-14T00:16:31;9.70;;;2.47;;
19579;SDS011;9936;51.040;13.918;2023-06-14T00:20:18;3.53;;;2.30;;
19579;SDS011;9936;51.040;13.918;2023-06-14T00:24:04;4.15;;;2.38;;
19579;SDS011;9936;51.040;13.918;2023-06-14T00:27:50;3.35;;;2.50;;
19579;SDS011;9936;51.040;13.918;2023-06-14T00:31:36;3.50;;;2.47;;
19579;SDS011;9936;51.040;13.918;2023-06-14T00:35:21;2.65;;;2.38;;
19579;SDS011;9936;51.040;13.918;2023-06-14T00:39:07;3.90;;;2.47;;
19579;SDS011;9936;51.040;13.918;2023-06-14T00:42:53;3.50;;;2.22;;
19579;SDS011;9936;51.040;13.918;2023-06-14T00:46:39;4.75;;;2.50;;
19579;SDS011;9936;51.040;13.918;2023-06-14T00:50:25;3.22;;;2.55;;
19579;SDS011;9936;51.040;13.918;2023-06-14T00:54:11;5.07;;;2.40;;
19579;SDS011;9936;51.040;13.918;2023-06-14T00:57:57;3.13;;;2.33;;
19579;SDS011;9936;51.040;13.918;2023-06-14T01:01:42;5.20;;;2.45;;
19579;SDS011;9936;51.040;13.918;2023-06-14T01:05:29;3.22;;;2.45;;
19579;SDS011;9936;51.040;13.918;2023-06-14T01:09:23;2.60;;;2.30;;
19579;SDS011;9936;51.040;13.918;2023-06-14T01:13:21;3.58;;;2.65;;
19579;SDS011;9936;51.040;13.918;2023-06-14T01:17:09;2.85;;;2.50;;
19579;SDS011;9936;51.040;13.918;2023-06-14T01:21:01;4.43;;;2.80;;
19579;SDS011;9936;51.040;13.918;2023-06-14T01:24:50;3.35;;;2.55;;
19579;SDS011;9936;51.040;13.918;2023-06-14T01:28:40;2.70;;;2.40;;
19579;SDS011;9936;51.040;13.918;2023-06-14T01:32:26;3.45;;;2.80;;
19579;SDS011;9936;51.040;13.918;2023-06-14T01:36:14;4.40;;;2.90;;
19579;SDS011;9936;51.040;13.918;2023-06-14T01:40:00;4.13;;;2.50;;
19579;SDS011;9936;51.040;13.918;2023-06-14T01:43:48;3.75;;;3.00;;
19579;SDS011;9936;51.040;13.918;2023-06-14T01:47:36;3.75;;;3.00;;
19579;SDS011;9936;51.040;13.918;2023-06-14T01:51:22;3.00;;;2.70;;
19579;SDS011;9936;51.040;13.918;2023-06-14T01:55:07;4.90;;;3.00;;
19579;SDS011;9936;51.040;13.918;2023-06-14T01:58:54;3.35;;;2.92;;
19579;SDS011;9936;51.040;13.918;2023-06-14T02:02:40;5.00;;;3.15;;
19579;SDS011;9936;51.040;13.918;2023-06-14T02:06:26;2.92;;;2.72;;
19579;SDS011;9936;51.040;13.918;2023-06-14T02:10:13;4.05;;;2.85;;
19579;SDS011;9936;51.040;13.918;2023-06-14T02:13:59;3.55;;;2.63;;
19579;SDS011;9936;51.040;13.918;2023-06-14T02:17:46;4.28;;;2.60;;
19579;SDS011;9936;51.040;13.918;2023-06-14T02:21:32;4.28;;;3.10;;
19579;SDS011;9936;51.040;13.918;2023-06-14T02:25:17;4.07;;;2.90;;
19579;SDS011;9936;51.040;13.918;2023-06-14T02:29:04;5.43;;;2.83;;
19579;SDS011;9936;51.040;13.918;2023-06-14T02:32:50;8.35;;;3.13;;
19579;SDS011;9936;51.040;13.918;2023-06-14T02:36:36;4.13;;;3.20;;
19579;SDS011;9936;51.040;13.918;2023-06-14T02:40:26;4.32;;;3.10;;
19579;SDS011;9936;51.040;13.918;2023-06-14T02:44:13;4.25;;;2.90;;
19579;SDS011;9936;51.040;13.918;2023-06-14T02:47:59;3.95;;;2.85;;
19579;SDS011;9936;51.040;13.918;2023-06-14T02:51:44;4.50;;;3.08;;
19579;SDS011;9936;51.040;13.918;2023-06-14T02:55:30;5.95;;;2.92;;
19579;SDS011;9936;51.040;13.918;2023-06-14T02:59:16;6.20;;;3.20;;
19579;SDS011;9936;51.040;13.918;2023-06-14T03:03:02;5.60;;;3.30;;
19579;SDS011;9936;51.040;13.918;2023-06-14T03:06:49;3.45;;;3.00;;
19579;SDS011;9936;51.040;13.918;2023-06-14T03:10:35;3.25;;;2.88;;
19579;SDS011;9936;51.040;13.918;2023-06-14T03:14:20;3.28;;;2.80;;
19579;SDS011;9936;51.040;13.918;2023-06-14T03:18:07;4.97;;;3.05;;
19579;SDS011;9936;51.040;13.918;2023-06-14T03:21:54;3.95;;;3.03;;
19579;SDS011;9936;51.040;13.918;2023-06-14T03:25:42;3.42;;;3.00;;
19579;SDS011;9936;51.040;13.918;2023-06-14T03:29:28;6.50;;;3.50;;
19579;SDS011;9936;51.040;13.918;2023-06-14T03:33:13;3.47;;;3.10;;
19579;SDS011;9936;51.040;13.918;2023-06-14T03:37:00;4.07;;;3.40;;
19579;SDS011;9936;51.040;13.918;2023-06-14T03:40:46;4.90;;;3.20;;
19579;SDS011;9936;51.040;13.918;2023-06-14T03:44:31;4.10;;;3.60;;
19579;SDS011;9936;51.040;13.918;2023-06-14T03:48:17;4.00;;;3.10;;
19579;SDS011;9936;51.040;13.918;2023-06-14T03:52:03;4.90;;;3.55;;
19579;SDS011;9936;51.040;13.918;2023-06-14T03:55:49;4.47;;;3.15;;
19579;SDS011;9936;51.040;13.918;2023-06-14T03:59:39;7.63;;;3.50;;
19579;SDS011;9936;51.040;13.918;2023-06-14T04:03:26;4.32;;;3.58;;
19579;SDS011;9936;51.040;13.918;2023-06-14T04:07:15;6.10;;;4.47;;
19579;SDS011;9936;51.040;13.918;2023-06-14T04:11:04;4.20;;;3.42;;
19579;SDS011;9936;51.040;13.918;2023-06-14T04:14:50;4.45;;;3.83;;
19579;SDS011;9936;51.040;13.918;2023-06-14T04:18:36;3.97;;;3.60;;
19579;SDS011;9936;51.040;13.918;2023-06-14T04:22:21;4.32;;;3.30;;
19579;SDS011;9936;51.040;13.918;2023-06-14T04:26:07;4.70;;;3.70;;
19579;SDS011;9936;51.040;13.918;2023-06-14T04:29:55;5.57;;;3.67;;
19579;SDS011;9936;51.040;13.918;2023-06-14T04:33:44;4.82;;;4.03;;
19579;SDS011;9936;51.040;13.918;2023-06-14T04:37:31;6.55;;;3.85;;
19579;SDS011;9936;51.040;13.918;2023-06-14T04:41:18;5.57;;;4.10;;
19579;SDS011;9936;51.040;13.918;2023-06-14T04:45:04;6.50;;;4.00;;
19579;SDS011;9936;51.040;13.918;2023-06-14T04:48:52;6.10;;;3.90;;
19579;SDS011;9936;51.040;13.918;2023-06-14T04:52:37;5.20;;;3.47;;
19579;SDS011;9936;51.040;13.918;2023-06-14T04:56:24;6.85;;;4.00;;
19579;SDS011;9936;51.040;13.918;2023-06-14T05:00:14;5.63;;;4.13;;
19579;SDS011;9936;51.040;13.918;2023-06-14T05:04:00;5.50;;;4.53;;
19579;SDS011;9936;51.040;13.918;2023-06-14T05:07:46;5.28;;;4.43;;
19579;SDS011;9936;51.040;13.918;2023-06-14T05:11:31;5.45;;;4.13;;
19579;SDS011;9936;51.040;13.918;2023-06-14T05:15:17;5.35;;;4.00;;
19579;SDS011;9936;51.040;13.918;2023-06-14T05:19:03;5.20;;;4.05;;
19579;SDS011;9936;51.040;13.918;2023-06-14T05:22:55;5.68;;;4.25;;
19579;SDS011;9936;51.040;13.918;2023-06-14T05:26:41;6.22;;;4.55;;
19579;SDS011;9936;51.040;13.918;2023-06-14T05:30:27;4.45;;;3.95;;
19579;SDS011;9936;51.040;13.918;2023-06-14T05:34:15;5.70;;;4.57;;
19579;SDS011;9936;51.040;13.918;2023-06-14T05:38:01;4.85;;;4.10;;
19579;SDS011;9936;51.040;13.918;2023-06-14T05:41:46;5.32;;;3.97;;
19579;SDS011;9936;51.040;13.918;2023-06-14T05:45:32;5.30;;;4.20;;
19579;SDS011;9936;51.040;13.918;2023-06-14T05:49:18;7.78;;;4.15;;
19579;SDS011;9936;51.040;13.918;2023-06-14T05:53:03;6.60;;;4.88;;
19579;SDS011;9936;51.040;13.918;2023-06-14T05:56:49;4.95;;;4.07;;
19579;SDS011;9936;51.040;13.918;2023-06-14T06:00:34;8.60;;;5.22;;
19579;SDS011;9936;51.040;13.918;2023-06-14T06:04:20;5.88;;;4.57;;
19579;SDS011;9936;51.040;13.918;2023-06-14T06:08:06;7.43;;;5.53;;
19579;SDS011;9936;51.040;13.918;2023-06-14T06:11:52;6.18;;;5.07;;
19579;SDS011;9936;51.040;13.918;2023-06-14T06:15:37;9.27;;;5.53;;
19579;SDS011;9936;51.040;13.918;2023-06-14T06:19:23;7.05;;;5.32;;
19579;SDS011;9936;51.040;13.918;2023-06-14T06:23:09;5.80;;;5.20;;
19579;SDS011;9936;51.040;13.918;2023-06-14T06:26:55;7.45;;;5.07;;
19579;SDS011;9936;51.040;13.918;2023-06-14T06:30:40;6.80;;;5.18;;
19579;SDS011;9936;51.040;13.918;2023-06-14T06:34:26;6.50;;;5.57;;
19579;SDS011;9936;51.040;13.918;2023-06-14T06:38:12;5.32;;;4.80;;
19579;SDS011;9936;51.040;13.918;2023-06-14T06:41:58;5.35;;;4.78;;
19579;SDS011;9936;51.040;13.918;2023-06-14T06:45:45;6.90;;;5.53;;
19579;SDS011;9936;51.040;13.918;2023-06-14T06:49:31;7.32;;;5.10;;
19579;SDS011;9936;51.040;13.918;2023-06-14T06:53:16;5.90;;;4.93;;
19579;SDS011;9936;51.040;13.918;2023-06-14T06:57:03;7.32;;;5.25;;
19579;SDS011;9936;51.040;13.918;2023-06-14T07:00:49;9.70;;;4.85;;
19579;SDS011;9936;51.040;13.918;2023-06-14T07:04:35;7.00;;;5.18;;
19579;SDS011;9936;51.040;13.918;2023-06-14T07:08:21;7.60;;;4.47;;
19579;SDS011;9936;51.040;13.918;2023-06-14T07:12:06;7.18;;;5.13;;
19579;SDS011;9936;51.040;13.918;2023-06-14T07:15:57;4.95;;;4.43;;
19579;SDS011;9936;51.040;13.918;2023-06-14T07:19:45;6.00;;;4.53;;
19579;SDS011;9936;51.040;13.918;2023-06-14T07:23:32;5.30;;;4.55;;
19579;SDS011;9936;51.040;13.918;2023-06-14T07:27:17;7.20;;;5.53;;
19579;SDS011;9936;51.040;13.918;2023-06-14T07:31:03;6.00;;;5.10;;
19579;SDS011;9936;51.040;13.918;2023-06-14T07:34:48;5.03;;;4.53;;
19579;SDS011;9936;51.040;13.918;2023-06-14T07:38:34;5.07;;;4.25;;
19579;SDS011;9936;51.040;13.918;2023-06-14T07:42:21;4.07;;;3.60;;
19579;SDS011;9936;51.040;13.918;2023-06-14T07:46:07;6.15;;;4.32;;
19579;SDS011;9936;51.040;13.918;2023-06-14T07:49:54;6.55;;;3.80;;
19579;SDS011;9936;51.040;13.918;2023-06-14T07:53:39;4.35;;;3.78;;
19579;SDS011;9936;51.040;13.918;2023-06-14T07:57:26;4.20;;;3.60;;
19579;SDS011;9936;51.040;13.918;2023-06-14T08:01:12;4.03;;;3.20;;
19579;SDS011;9936;51.040;13.918;2023-06-14T08:04:58;3.00;;;2.70;;
19579;SDS011;9936;51.040;13.918;2023-06-14T08:08:44;3.03;;;2.70;;
19579;SDS011;9936;51.040;13.918;2023-06-14T08:12:29;6.97;;;3.08;;
19579;SDS011;9936;51.040;13.918;2023-06-14T08:16:15;3.97;;;2.83;;
19579;SDS011;9936;51.040;13.918;2023-06-14T08:20:03;4.07;;;2.95;;
19579;SDS011;9936;51.040;13.918;2023-06-14T08:23:50;3.83;;;3.40;;
19579;SDS011;9936;51.040;13.918;2023-06-14T08:27:38;4.55;;;3.13;;
19579;SDS011;9936;51.040;13.918;2023-06-14T08:31:23;3.60;;;3.30;;
19579;SDS011;9936;51.040;13.918;2023-06-14T08:35:10;5.80;;;3.53;;
19579;SDS011;9936;51.040;13.918;2023-06-14T08:38:57;4.43;;;3.22;;
19579;SDS011;9936;51.040;13.918;2023-06-14T08:42:43;4.75;;;2.92;;
19579;SDS011;9936;51.040;13.918;2023-06-14T08:46:30;6.88;;;3.35;;
19579;SDS011;9936;51.040;13.918;2023-06-14T08:50:21;4.22;;;2.75;;
19579;SDS011;9936;51.040;13.918;2023-06-14T08:54:09;4.05;;;3.65;;
19579;SDS011;9936;51.040;13.918;2023-06-14T08:57:57;3.38;;;2.70;;
19579;SDS011;9936;51.040;13.918;2023-06-14T09:01:43;3.38;;;3.08;;
19579;SDS011;9936;51.040;13.918;2023-06-14T09:05:30;9.35;;;3.30;;
19579;SDS011;9936;51.040;13.918;2023-06-14T09:09:16;6.65;;;3.53;;
19579;SDS011;9936;51.040;13.918;2023-06-14T09:13:01;3.22;;;2.95;;
19579;SDS011;9936;51.040;13.918;2023-06-14T09:16:47;4.28;;;3.20;;
19579;SDS011;9936;51.040;13.918;2023-06-14T09:20:33;3.42;;;3.13;;
19579;SDS011;9936;51.040;13.918;2023-06-14T09:24:19;3.78;;;3.05;;
19579;SDS011;9936;51.040;13.918;2023-06-14T09:28:06;4.97;;;3.17;;
19579;SDS011;9936;51.040;13.918;2023-06-14T09:31:52;4.15;;;3.20;;
19579;SDS011;9936;51.040;13.918;2023-06-14T09:35:38;4.55;;;3.60;;
19579;SDS011;9936;51.040;13.918;2023-06-14T09:39:24;4.97;;;3.90;;
19579;SDS011;9936;51.040;13.918;2023-06-14T09:43:10;5.75;;;3.72;;
19579;SDS011;9936;51.040;13.918;2023-06-14T09:46:56;4.10;;;3.70;;
19579;SDS011;9936;51.040;13.918;2023-06-14T09:50:42;6.50;;;3.38;;
19579;SDS011;9936;51.040;13.918;2023-06-14T09:54:30;4.38;;;3.50;;
19579;SDS011;9936;51.040;13.918;2023-06-14T09:58:17;6.35;;;2.90;;
19579;SDS011;9936;51.040;13.918;2023-06-14T10:02:06;3.08;;;2.78;;
19579;SDS011;9936;51.040;13.918;2023-06-14T10:05:56;3.38;;;2.85;;
19579;SDS011;9936;51.040;13.918;2023-06-14T10:09:46;3.13;;;2.83;;
19579;SDS011;9936;51.040;13.918;2023-06-14T10:13:34;3.70;;;2.80;;
19579;SDS011;9936;51.040;13.918;2023-06-14T10:25:33;3.30;;;3.00;;
19579;SDS011;9936;51.040;13.918;2023-06-14T10:29:20;3.00;;;2.63;;
19579;SDS011;9936;51.040;13.918;2023-06-14T10:33:06;4.88;;;2.58;;
19579;SDS011;9936;51.040;13.918;2023-06-14T10:37:02;4.68;;;2.55;;
19579;SDS011;9936;51.040;13.918;2023-06-14T10:40:53;4.25;;;2.75;;
19579;SDS011;9936;51.040;13.918;2023-06-14T10:44:45;3.58;;;2.78;;
19579;SDS011;9936;51.040;13.918;2023-06-14T10:48:44;4.40;;;2.67;;
19579;SDS011;9936;51.040;13.918;2023-06-14T10:52:31;3.55;;;2.30;;
19579;SDS011;9936;51.040;13.918;2023-06-14T10:56:24;2.60;;;2.40;;
19579;SDS011;9936;51.040;13.918;2023-06-14T11:00:13;3.97;;;2.78;;
19579;SDS011;9936;51.040;13.918;2023-06-14T11:04:09;4.45;;;2.90;;
19579;SDS011;9936;51.040;13.918;2023-06-14T11:12:09;4.13;;;3.53;;
19579;SDS011;9936;51.040;13.918;2023-06-14T11:15:56;4.60;;;4.15;;
19579;SDS011;9936;51.040;13.918;2023-06-14T11:19:43;7.30;;;3.95;;
19579;SDS011;9936;51.040;13.918;2023-06-14T11:28:05;5.65;;;4.30;;
19579;SDS011;9936;51.040;13.918;2023-06-14T11:31:51;4.30;;;3.72;;
19579;SDS011;9936;51.040;13.918;2023-06-14T11:35:37;4.05;;;3.50;;
19579;SDS011;9936;51.040;13.918;2023-06-14T11:39:25;7.00;;;3.88;;
19579;SDS011;9936;51.040;13.918;2023-06-14T11:43:12;5.45;;;4.20;;
19579;SDS011;9936;51.040;13.918;2023-06-14T11:46:59;4.57;;;3.72;;
19579;SDS011;9936;51.040;13.918;2023-06-14T11:50:49;8.18;;;3.80;;
19579;SDS011;9936;51.040;13.918;2023-06-14T11:54:36;5.20;;;4.20;;
19579;SDS011;9936;51.040;13.918;2023-06-14T11:58:22;7.05;;;4.38;;
19579;SDS011;9936;51.040;13.918;2023-06-14T12:02:08;5.28;;;4.30;;
19579;SDS011;9936;51.040;13.918;2023-06-14T12:06:07;5.45;;;4.32;;
19579;SDS011;9936;51.040;13.918;2023-06-14T12:13:41;4.82;;;4.35;;
19579;SDS011;9936;51.040;13.918;2023-06-14T12:17:31;8.55;;;4.40;;
19579;SDS011;9936;51.040;13.918;2023-06-14T12:21:23;6.22;;;4.18;;
19579;SDS011;9936;51.040;13.918;2023-06-14T12:25:10;4.85;;;4.00;;
19579;SDS011;9936;51.040;13.918;2023-06-14T12:29:12;6.72;;;4.20;;
19579;SDS011;9936;51.040;13.918;2023-06-14T12:32:57;5.53;;;3.70;;
19579;SDS011;9936;51.040;13.918;2023-06-14T12:36:43;4.65;;;3.75;;
19579;SDS011;9936;51.040;13.918;2023-06-14T12:40:29;4.93;;;4.07;;
19579;SDS011;9936;51.040;13.918;2023-06-14T12:44:15;19.67;;;4.80;;
19579;SDS011;9936;51.040;13.918;2023-06-14T12:48:01;5.75;;;4.13;;
19579;SDS011;9936;51.040;13.918;2023-06-14T12:51:46;7.20;;;4.85;;
19579;SDS011;9936;51.040;13.918;2023-06-14T12:55:32;7.25;;;4.38;;
19579;SDS011;9936;51.040;13.918;2023-06-14T12:59:18;4.40;;;4.00;;
19579;SDS011;9936;51.040;13.918;2023-06-14T13:03:04;6.03;;;3.92;;
19579;SDS011;9936;51.040;13.918;2023-06-14T13:06:50;5.28;;;4.10;;
19579;SDS011;9936;51.040;13.918;2023-06-14T13:10:35;9.20;;;4.63;;
19579;SDS011;9936;51.040;13.918;2023-06-14T13:14:21;7.57;;;4.72;;
19579;SDS011;9936;51.040;13.918;2023-06-14T13:21:58;8.52;;;4.93;;
19579;SDS011;9936;51.040;13.918;2023-06-14T13:25:43;5.88;;;4.53;;
19579;SDS011;9936;51.040;13.918;2023-06-14T13:29:29;4.88;;;4.18;;
19579;SDS011;9936;51.040;13.918;2023-06-14T13:33:16;4.90;;;4.35;;
19579;SDS011;9936;51.040;13.918;2023-06-14T13:37:01;7.20;;;3.70;;
19579;SDS011;9936;51.040;13.918;2023-06-14T13:40:47;6.80;;;4.10;;
19579;SDS011;9936;51.040;13.918;2023-06-14T13:48:44;6.05;;;3.35;;
19579;SDS011;9936;51.040;13.918;2023-06-14T13:52:31;3.88;;;3.33;;
19579;SDS011;9936;51.040;13.918;2023-06-14T13:56:17;3.92;;;3.13;;
19579;SDS011;9936;51.040;13.918;2023-06-14T14:00:04;6.40;;;3.22;;
19579;SDS011;9936;51.040;13.918;2023-06-14T14:03:50;4.38;;;3.28;;
19579;SDS011;9936;51.040;13.918;2023-06-14T14:07:35;3.70;;;3.33;;
19579;SDS011;9936;51.040;13.918;2023-06-14T14:11:23;4.35;;;3.42;;
19579;SDS011;9936;51.040;13.918;2023-06-14T14:15:08;7.38;;;3.78;;
19579;SDS011;9936;51.040;13.918;2023-06-14T14:18:57;4.00;;;3.65;;
19579;SDS011;9936;51.040;13.918;2023-06-14T14:22:43;7.05;;;3.63;;
19579;SDS011;9936;51.040;13.918;2023-06-14T14:26:29;3.38;;;3.08;;
19579;SDS011;9936;51.040;13.918;2023-06-14T14:30:18;5.03;;;3.17;;
19579;SDS011;9936;51.040;13.918;2023-06-14T14:34:08;5.32;;;3.05;;
19579;SDS011;9936;51.040;13.918;2023-06-14T14:37:54;3.97;;;3.40;;
19579;SDS011;9936;51.040;13.918;2023-06-14T14:41:39;3.58;;;3.00;;
19579;SDS011;9936;51.040;13.918;2023-06-14T14:49:17;6.15;;;3.10;;
19579;SDS011;9936;51.040;13.918;2023-06-14T14:57:13;5.20;;;3.42;;
19579;SDS011;9936;51.040;13.918;2023-06-14T15:01:05;3.60;;;3.30;;
19579;SDS011;9936;51.040;13.918;2023-06-14T15:04:52;4.45;;;3.25;;
19579;SDS011;9936;51.040;13.918;2023-06-14T15:08:37;5.57;;;3.20;;
19579;SDS011;9936;51.040;13.918;2023-06-14T15:12:23;3.80;;;3.35;;
19579;SDS011;9936;51.040;13.918;2023-06-14T15:16:09;5.72;;;3.45;;
19579;SDS011;9936;51.040;13.918;2023-06-14T15:19:54;5.95;;;3.60;;
19579;SDS011;9936;51.040;13.918;2023-06-14T15:23:40;4.88;;;3.63;;
19579;SDS011;9936;51.040;13.918;2023-06-14T15:27:26;4.45;;;3.42;;
19579;SDS011;9936;51.040;13.918;2023-06-14T15:31:12;3.22;;;2.92;;
19579;SDS011;9936;51.040;13.918;2023-06-14T15:34:58;5.18;;;3.38;;
19579;SDS011;9936;51.040;13.918;2023-06-14T15:38:44;5.10;;;3.63;;
19579;SDS011;9936;51.040;13.918;2023-06-14T15:42:29;5.70;;;3.45;;
19579;SDS011;9936;51.040;13.918;2023-06-14T15:46:15;9.40;;;4.88;;
19579;SDS011;9936;51.040;13.918;2023-06-14T15:50:01;11.88;;;4.68;;
19579;SDS011;9936;51.040;13.918;2023-06-14T15:53:50;7.25;;;4.57;;
19579;SDS011;9936;51.040;13.918;2023-06-14T15:57:37;14.07;;;6.40;;
19579;SDS011;9936;51.040;13.918;2023-06-14T16:01:31;6.72;;;4.72;;
19579;SDS011;9936;51.040;13.918;2023-06-14T16:05:17;4.43;;;4.03;;
19579;SDS011;9936;51.040;13.918;2023-06-14T16:09:03;5.13;;;4.60;;
19579;SDS011;9936;51.040;13.918;2023-06-14T16:12:49;5.25;;;4.65;;
19579;SDS011;9936;51.040;13.918;2023-06-14T16:16:34;5.95;;;4.55;;
19579;SDS011;9936;51.040;13.918;2023-06-14T16:20:20;4.93;;;4.43;;
19579;SDS011;9936;51.040;13.918;2023-06-14T16:24:06;5.10;;;4.35;;
19579;SDS011;9936;51.040;13.918;2023-06-14T16:27:53;6.90;;;4.70;;
19579;SDS011;9936;51.040;13.918;2023-06-14T16:31:39;5.30;;;3.95;;
19579;SDS011;9936;51.040;13.918;2023-06-14T16:35:25;4.47;;;4.07;;
19579;SDS011;9936;51.040;13.918;2023-06-14T16:39:11;4.85;;;4.28;;
19579;SDS011;9936;51.040;13.918;2023-06-14T16:42:57;5.50;;;4.68;;
19579;SDS011;9936;51.040;13.918;2023-06-14T16:46:42;5.78;;;4.38;;
19579;SDS011;9936;51.040;13.918;2023-06-14T16:50:28;5.60;;;4.47;;
19579;SDS011;9936;51.040;13.918;2023-06-14T16:54:14;4.90;;;4.38;;
19579;SDS011;9936;51.040;13.918;2023-06-14T16:58:00;4.60;;;4.20;;
19579;SDS011;9936;51.040;13.918;2023-06-14T17:01:49;4.78;;;4.20;;
19579;SDS011;9936;51.040;13.918;2023-06-14T17:05:35;14.23;;;5.00;;
19579;SDS011;9936;51.040;13.918;2023-06-14T17:09:21;6.93;;;4.57;;
19579;SDS011;9936;51.040;13.918;2023-06-14T17:13:07;7.00;;;4.47;;
19579;SDS011;9936;51.040;13.918;2023-06-14T17:16:52;6.07;;;4.65;;
19579;SDS011;9936;51.040;13.918;2023-06-14T17:20:38;5.47;;;4.85;;
19579;SDS011;9936;51.040;13.918;2023-06-14T17:24:24;6.03;;;4.57;;
19579;SDS011;9936;51.040;13.918;2023-06-14T17:28:09;5.32;;;4.78;;
19579;SDS011;9936;51.040;13.918;2023-06-14T17:31:55;5.38;;;4.82;;
19579;SDS011;9936;51.040;13.918;2023-06-14T17:35:41;5.65;;;4.68;;
19579;SDS011;9936;51.040;13.918;2023-06-14T17:39:33;5.40;;;4.70;;
19579;SDS011;9936;51.040;13.918;2023-06-14T17:43:21;7.07;;;4.65;;
19579;SDS011;9936;51.040;13.918;2023-06-14T17:47:08;5.28;;;4.05;;
19579;SDS011;9936;51.040;13.918;2023-06-14T17:50:54;4.65;;;4.13;;
19579;SDS011;9936;51.040;13.918;2023-06-14T17:54:39;6.63;;;4.97;;
19579;SDS011;9936;51.040;13.918;2023-06-14T17:58:25;6.53;;;4.22;;
19579;SDS011;9936;51.040;13.918;2023-06-14T18:02:11;5.05;;;4.07;;
19579;SDS011;9936;51.040;13.918;2023-06-14T18:05:59;14.30;;;4.40;;
19579;SDS011;9936;51.040;13.918;2023-06-14T18:09:45;5.28;;;4.05;;
19579;SDS011;9936;51.040;13.918;2023-06-14T18:13:36;6.20;;;3.97;;
19579;SDS011;9936;51.040;13.918;2023-06-14T18:17:22;6.40;;;4.00;;
19579;SDS011;9936;51.040;13.918;2023-06-14T18:21:08;6.72;;;4.00;;
19579;SDS011;9936;51.040;13.918;2023-06-14T18:24:53;4.75;;;3.88;;
19579;SDS011;9936;51.040;13.918;2023-06-14T18:28:39;4.40;;;3.67;;
19579;SDS011;9936;51.040;13.918;2023-06-14T18:32:25;5.93;;;3.78;;
19579;SDS011;9936;51.040;13.918;2023-06-14T18:36:15;4.07;;;3.67;;
19579;SDS011;9936;51.040;13.918;2023-06-14T18:40:02;7.30;;;3.63;;
19579;SDS011;9936;51.040;13.918;2023-06-14T18:43:48;4.15;;;3.75;;
19579;SDS011;9936;51.040;13.918;2023-06-14T18:47:34;5.20;;;3.85;;
19579;SDS011;9936;51.040;13.918;2023-06-14T18:51:20;5.80;;;3.95;;
19579;SDS011;9936;51.040;13.918;2023-06-14T18:55:06;4.63;;;3.60;;
19579;SDS011;9936;51.040;13.918;2023-06-14T18:58:52;4.88;;;3.60;;
19579;SDS011;9936;51.040;13.918;2023-06-14T19:02:38;3.70;;;3.40;;
19579;SDS011;9936;51.040;13.918;2023-06-14T19:06:24;3.42;;;3.13;;
19579;SDS011;9936;51.040;13.918;2023-06-14T19:10:10;4.47;;;3.13;;
19579;SDS011;9936;51.040;13.918;2023-06-14T19:13:56;3.72;;;3.17;;
19579;SDS011;9936;51.040;13.918;2023-06-14T19:17:42;4.88;;;3.15;;
19579;SDS011;9936;51.040;13.918;2023-06-14T19:21:40;5.13;;;3.30;;
19579;SDS011;9936;51.040;13.918;2023-06-14T19:25:26;5.65;;;3.40;;
19579;SDS011;9936;51.040;13.918;2023-06-14T19:29:12;6.05;;;3.58;;
19579;SDS011;9936;51.040;13.918;2023-06-14T19:32:57;4.80;;;3.42;;
19579;SDS011;9936;51.040;13.918;2023-06-14T19:36:43;4.07;;;3.42;;
19579;SDS011;9936;51.040;13.918;2023-06-14T19:40:29;5.15;;;3.15;;
19579;SDS011;9936;51.040;13.918;2023-06-14T19:44:14;8.45;;;3.50;;
19579;SDS011;9936;51.040;13.918;2023-06-14T19:48:00;4.22;;;3.60;;
19579;SDS011;9936;51.040;13.918;2023-06-14T19:51:46;3.50;;;3.20;;
19579;SDS011;9936;51.040;13.918;2023-06-14T19:55:32;3.83;;;3.10;;
19579;SDS011;9936;51.040;13.918;2023-06-14T20:03:23;5.15;;;3.70;;
19579;SDS011;9936;51.040;13.918;2023-06-14T20:07:09;3.47;;;3.17;;
19579;SDS011;9936;51.040;13.918;2023-06-14T20:10:54;4.82;;;3.00;;
19579;SDS011;9936;51.040;13.918;2023-06-14T20:14:40;3.20;;;2.80;;
19579;SDS011;9936;51.040;13.918;2023-06-14T20:18:26;3.50;;;3.20;;
19579;SDS011;9936;51.040;13.918;2023-06-14T20:22:11;3.90;;;3.50;;
19579;SDS011;9936;51.040;13.918;2023-06-14T20:25:57;4.22;;;3.83;;
19579;SDS011;9936;51.040;13.918;2023-06-14T20:29:43;4.60;;;3.63;;
19579;SDS011;9936;51.040;13.918;2023-06-14T20:33:28;6.10;;;3.22;;
19579;SDS011;9936;51.040;13.918;2023-06-14T20:37:14;3.65;;;3.35;;
19579;SDS011;9936;51.040;13.918;2023-06-14T20:41:02;4.63;;;3.80;;
19579;SDS011;9936;51.040;13.918;2023-06-14T20:44:48;4.13;;;3.72;;
19579;SDS011;9936;51.040;13.918;2023-06-14T20:48:50;6.88;;;3.95;;
19579;SDS011;9936;51.040;13.918;2023-06-14T20:56:25;4.18;;;3.50;;
19579;SDS011;9936;51.040;13.918;2023-06-14T21:00:11;3.85;;;3.47;;
19579;SDS011;9936;51.040;13.918;2023-06-14T21:04:08;3.92;;;3.63;;
19579;SDS011;9936;51.040;13.918;2023-06-14T21:07:54;6.32;;;3.58;;
19579;SDS011;9936;51.040;13.918;2023-06-14T21:11:40;5.13;;;3.28;;
19579;SDS011;9936;51.040;13.918;2023-06-14T21:19:18;4.40;;;3.60;;
19579;SDS011;9936;51.040;13.918;2023-06-14T21:23:04;4.93;;;3.60;;
19579;SDS011;9936;51.040;13.918;2023-06-14T21:26:50;5.57;;;3.67;;
19579;SDS011;9936;51.040;13.918;2023-06-14T21:30:36;4.00;;;3.60;;
19579;SDS011;9936;51.040;13.918;2023-06-14T21:34:22;6.10;;;3.58;;
19579;SDS011;9936;51.040;13.918;2023-06-14T21:38:08;3.92;;;3.38;;
19579;SDS011;9936;51.040;13.918;2023-06-14T21:41:53;3.75;;;3.38;;
19579;SDS011;9936;51.040;13.918;2023-06-14T21:45:39;6.18;;;3.05;;
19579;SDS011;9936;51.040;13.918;2023-06-14T21:49:25;5.15;;;3.60;;
19579;SDS011;9936;51.040;13.918;2023-06-14T21:53:10;4.15;;;3.50;;
19579;SDS011;9936;51.040;13.918;2023-06-14T21:56:56;4.18;;;3.63;;
19579;SDS011;9936;51.040;13.918;2023-06-14T22:00:42;7.20;;;3.35;;
19579;SDS011;9936;51.040;13.918;2023-06-14T22:04:27;4.50;;;3.60;;
19579;SDS011;9936;51.040;13.918;2023-06-14T22:08:13;4.30;;;3.55;;
19579;SDS011;9936;51.040;13.918;2023-06-14T22:11:59;3.63;;;3.33;;
19579;SDS011;9936;51.040;13.918;2023-06-14T22:15:47;3.70;;;3.40;;
19579;SDS011;9936;51.040;13.918;2023-06-14T22:19:33;4.50;;;3.15;;
19579;SDS011;9936;51.040;13.918;2023-06-14T22:23:22;4.50;;;3.35;;
19579;SDS011;9936;51.040;13.918;2023-06-14T22:27:10;4.28;;;3.20;;
19579;SDS011;9936;51.040;13.918;2023-06-14T22:30:56;3.70;;;3.40;;
19579;SDS011;9936;51.040;13.918;2023-06-14T22:34:42;3.80;;;3.30;;
19579;SDS011;9936;51.040;13.918;2023-06-14T22:38:28;4.97;;;3.40;;
19579;SDS011;9936;51.040;13.918;2023-06-14T22:42:14;4.28;;;3.25;;
19579;SDS011;9936;51.040;13.918;2023-06-14T22:46:03;3.97;;;3.58;;
19579;SDS011;9936;51.040;13.918;2023-06-14T22:49:51;5.03;;;3.70;;
19579;SDS011;9936;51.040;13.918;2023-06-14T22:53:38;4.22;;;3.83;;
19579;SDS011;9936;51.040;13.918;2023-06-14T22:57:25;7.97;;;3.78;;
19579;SDS011;9936;51.040;13.918;2023-06-14T23:01:11;3.67;;;3.30;;
19579;SDS011;9936;51.040;13.918;2023-06-14T23:04:59;4.55;;;3.30;;
19579;SDS011;9936;51.040;13.918;2023-06-14T23:08:45;4.50;;;3.60;;
19579;SDS011;9936;51.040;13.918;2023-06-14T23:12:30;4.15;;;3.75;;
19579;SDS011;9936;51.040;13.918;2023-06-14T23:16:18;3.83;;;3.42;;
19579;SDS011;9936;51.040;13.918;2023-06-14T23:20:04;5.45;;;3.53;;
19579;SDS011;9936;51.040;13.918;2023-06-14T23:23:57;4.63;;;3.67;;
19579;SDS011;9936;51.040;13.918;2023-06-14T23:27:43;5.00;;;3.70;;
19579;SDS011;9936;51.040;13.918;2023-06-14T23:31:30;6.10;;;3.30;;
19579;SDS011;9936;51.040;13.918;2023-06-14T23:35:18;3.78;;;3.25;;